sensor_id;sensor_type;location;lat;lon;timestamp;P1;durP1;ratioP1;P2;durP2;ratioP2
38611;SDS011;24368;52.156;20.788;2023-03-04T00:01:22;23.50;;;15.00;;
38611;SDS011;24368;52.156;20.788;2023-03-04T00:06:24;23.10;;;16.50;;
38611;SDS011;24368;52.156;20.788;2023-03-04T00:11:26;27.40;;;17.00;;
38611;SDS011;24368;52.156;20.788;2023-03-04T00:16:28;24.30;;;16.90;;
38611;SDS011;24368;52.156;20.788;2023-03-04T00:21:29;21.20;;;13.30;;
38611;SDS011;24368;52.156;20.788;2023-03-04T00:26:31;24.60;;;15.50;;
38611;SDS011;24368;52.156;20.788;2023-03-04T00:31:33;26.60;;;17.10;;
38611;SDS011;24368;52.156;20.788;2023-03-04T00:36:35;29.50;;;17.80;;
38611;SDS011;24368;52.156;20.788;2023-03-04T00:41:37;32.30;;;19.10;;
38611;SDS011;24368;52.156;20.788;2023-03-04T00:46:38;26.80;;;18.30;;
38611;SDS011;24368;52.156;20.788;2023-03-04T00:51:40;29.10;;;18.50;;
38611;SDS011;24368;52.156;20.788;2023-03-04T00:56:42;32.40;;;19.90;;
38611;SDS011;24368;52.156;20.788;2023-03-04T01:01:44;31.50;;;19.40;;
38611;SDS011;24368;52.156;20.788;2023-03-04T01:06:45;31.90;;;19.30;;
38611;SDS011;24368;52.156;20.788;2023-03-04T01:11:47;32.50;;;19.30;;
38611;SDS011;24368;52.156;20.788;2023-03-04T01:22:15;22.20;;;13.70;;
38611;SDS011;24368;52.156;20.788;2023-03-04T01:27:19;25.00;;;14.50;;
38611;SDS011;24368;52.156;20.788;2023-03-04T01:32:21;27.90;;;17.40;;
38611;SDS011;24368;52.156;20.788;2023-03-04T01:37:23;28.70;;;16.90;;
38611;SDS011;24368;52.156;20.788;2023-03-04T01:42:25;23.40;;;15.10;;
38611;SDS011;24368;52.156;20.788;2023-03-04T01:52:33;25.60;;;15.30;;
38611;SDS011;24368;52.156;20.788;2023-03-04T01:57:44;22.40;;;15.10;;
38611;SDS011;24368;52.156;20.788;2023-03-04T02:02:49;22.70;;;14.70;;
38611;SDS011;24368;52.156;20.788;2023-03-04T02:07:53;23.60;;;15.50;;
38611;SDS011;24368;52.156;20.788;2023-03-04T02:12:58;16.00;;;9.70;;
38611;SDS011;24368;52.156;20.788;2023-03-04T02:18:01;22.90;;;14.60;;
38611;SDS011;24368;52.156;20.788;2023-03-04T02:28:12;24.10;;;15.00;;
38611;SDS011;24368;52.156;20.788;2023-03-04T02:33:17;27.50;;;16.10;;
38611;SDS011;24368;52.156;20.788;2023-03-04T02:38:20;24.90;;;16.60;;
38611;SDS011;24368;52.156;20.788;2023-03-04T02:43:22;22.70;;;15.70;;
38611;SDS011;24368;52.156;20.788;2023-03-04T02:48:24;23.40;;;16.20;;
38611;SDS011;24368;52.156;20.788;2023-03-04T02:53:26;22.70;;;13.90;;
38611;SDS011;24368;52.156;20.788;2023-03-04T02:58:28;23.00;;;12.90;;
38611;SDS011;24368;52.156;20.788;2023-03-04T03:03:30;21.30;;;13.80;;
38611;SDS011;24368;52.156;20.788;2023-03-04T03:08:31;24.90;;;13.90;;
38611;SDS011;24368;52.156;20.788;2023-03-04T03:13:33;23.70;;;15.70;;
38611;SDS011;24368;52.156;20.788;2023-03-04T03:18:35;23.90;;;15.70;;
38611;SDS011;24368;52.156;20.788;2023-03-04T03:23:37;18.10;;;11.70;;
38611;SDS011;24368;52.156;20.788;2023-03-04T03:28:38;26.10;;;17.80;;
38611;SDS011;24368;52.156;20.788;2023-03-04T03:33:40;28.20;;;17.60;;
38611;SDS011;24368;52.156;20.788;2023-03-04T03:38:42;23.80;;;14.40;;
38611;SDS011;24368;52.156;20.788;2023-03-04T03:43:44;23.50;;;15.20;;
38611;SDS011;24368;52.156;20.788;2023-03-04T03:48:45;20.50;;;13.90;;
38611;SDS011;24368;52.156;20.788;2023-03-04T03:53:47;19.40;;;14.00;;
38611;SDS011;24368;52.156;20.788;2023-03-04T03:58:49;18.30;;;12.70;;
38611;SDS011;24368;52.156;20.788;2023-03-04T04:03:51;20.40;;;13.50;;
38611;SDS011;24368;52.156;20.788;2023-03-04T04:08:53;22.60;;;15.40;;
38611;SDS011;24368;52.156;20.788;2023-03-04T04:13:55;18.00;;;12.00;;
38611;SDS011;24368;52.156;20.788;2023-03-04T04:18:57;22.00;;;15.00;;
38611;SDS011;24368;52.156;20.788;2023-03-04T04:23:58;25.50;;;16.80;;
38611;SDS011;24368;52.156;20.788;2023-03-04T04:29:00;23.80;;;17.50;;
38611;SDS011;24368;52.156;20.788;2023-03-04T04:34:02;15.30;;;10.60;;
38611;SDS011;24368;52.156;20.788;2023-03-04T04:39:03;23.40;;;14.90;;
38611;SDS011;24368;52.156;20.788;2023-03-04T04:44:05;23.40;;;15.30;;
38611;SDS011;24368;52.156;20.788;2023-03-04T04:49:08;19.50;;;13.20;;
38611;SDS011;24368;52.156;20.788;2023-03-04T04:54:10;20.50;;;13.50;;
38611;SDS011;24368;52.156;20.788;2023-03-04T04:59:14;22.50;;;15.00;;
38611;SDS011;24368;52.156;20.788;2023-03-04T05:04:16;21.30;;;13.10;;
38611;SDS011;24368;52.156;20.788;2023-03-04T05:09:18;15.70;;;11.40;;
38611;SDS011;24368;52.156;20.788;2023-03-04T05:14:21;19.60;;;12.70;;
38611;SDS011;24368;52.156;20.788;2023-03-04T05:19:23;22.20;;;15.90;;
38611;SDS011;24368;52.156;20.788;2023-03-04T05:24:24;18.20;;;13.00;;
38611;SDS011;24368;52.156;20.788;2023-03-04T05:29:26;18.30;;;13.80;;
38611;SDS011;24368;52.156;20.788;2023-03-04T05:34:28;20.60;;;15.50;;
38611;SDS011;24368;52.156;20.788;2023-03-04T05:39:30;20.10;;;14.30;;
38611;SDS011;24368;52.156;20.788;2023-03-04T05:44:32;18.60;;;13.40;;
38611;SDS011;24368;52.156;20.788;2023-03-04T05:49:33;16.50;;;10.10;;
38611;SDS011;24368;52.156;20.788;2023-03-04T05:54:35;21.40;;;14.90;;
38611;SDS011;24368;52.156;20.788;2023-03-04T05:59:37;18.80;;;12.30;;
38611;SDS011;24368;52.156;20.788;2023-03-04T06:04:39;17.80;;;14.30;;
38611;SDS011;24368;52.156;20.788;2023-03-04T06:09:40;24.00;;;16.20;;
38611;SDS011;24368;52.156;20.788;2023-03-04T06:14:45;20.90;;;14.90;;
38611;SDS011;24368;52.156;20.788;2023-03-04T06:19:47;16.70;;;12.30;;
38611;SDS011;24368;52.156;20.788;2023-03-04T06:24:48;19.70;;;14.10;;
38611;SDS011;24368;52.156;20.788;2023-03-04T06:29:50;21.00;;;14.00;;
38611;SDS011;24368;52.156;20.788;2023-03-04T06:34:52;17.80;;;13.70;;
38611;SDS011;24368;52.156;20.788;2023-03-04T06:39:54;17.80;;;13.70;;
38611;SDS011;24368;52.156;20.788;2023-03-04T06:44:56;17.70;;;13.90;;
38611;SDS011;24368;52.156;20.788;2023-03-04T06:49:58;17.20;;;11.80;;
38611;SDS011;24368;52.156;20.788;2023-03-04T06:54:59;22.00;;;14.50;;
38611;SDS011;24368;52.156;20.788;2023-03-04T07:00:01;16.60;;;12.60;;
38611;SDS011;24368;52.156;20.788;2023-03-04T07:05:04;16.60;;;13.30;;
38611;SDS011;24368;52.156;20.788;2023-03-04T07:10:06;19.00;;;13.80;;
38611;SDS011;24368;52.156;20.788;2023-03-04T07:15:10;15.90;;;12.60;;
38611;SDS011;24368;52.156;20.788;2023-03-04T07:20:12;19.60;;;13.80;;
38611;SDS011;24368;52.156;20.788;2023-03-04T07:25:14;20.60;;;13.70;;
38611;SDS011;24368;52.156;20.788;2023-03-04T07:30:18;16.70;;;11.30;;
38611;SDS011;24368;52.156;20.788;2023-03-04T07:35:20;17.80;;;11.60;;
38611;SDS011;24368;52.156;20.788;2023-03-04T07:40:22;16.70;;;12.50;;
38611;SDS011;24368;52.156;20.788;2023-03-04T07:45:24;17.70;;;12.50;;
38611;SDS011;24368;52.156;20.788;2023-03-04T07:50:28;16.00;;;13.10;;
38611;SDS011;24368;52.156;20.788;2023-03-04T07:55:30;18.60;;;13.00;;
38611;SDS011;24368;52.156;20.788;2023-03-04T08:00:31;17.50;;;12.80;;
38611;SDS011;24368;52.156;20.788;2023-03-04T08:05:34;18.30;;;12.20;;
38611;SDS011;24368;52.156;20.788;2023-03-04T08:10:36;17.60;;;12.50;;
38611;SDS011;24368;52.156;20.788;2023-03-04T08:15:40;16.50;;;11.80;;
38611;SDS011;24368;52.156;20.788;2023-03-04T08:20:43;16.40;;;12.90;;
38611;SDS011;24368;52.156;20.788;2023-03-04T08:25:45;15.30;;;10.40;;
38611;SDS011;24368;52.156;20.788;2023-03-04T08:30:51;16.70;;;11.60;;
38611;SDS011;24368;52.156;20.788;2023-03-04T08:35:54;13.30;;;9.80;;
38611;SDS011;24368;52.156;20.788;2023-03-04T08:40:56;17.70;;;12.10;;
38611;SDS011;24368;52.156;20.788;2023-03-04T08:45:59;13.00;;;10.60;;
38611;SDS011;24368;52.156;20.788;2023-03-04T08:51:05;16.10;;;11.20;;
38611;SDS011;24368;52.156;20.788;2023-03-04T08:56:08;14.50;;;10.40;;
38611;SDS011;24368;52.156;20.788;2023-03-04T09:01:11;13.80;;;10.10;;
38611;SDS011;24368;52.156;20.788;2023-03-04T09:06:15;15.90;;;11.10;;
38611;SDS011;24368;52.156;20.788;2023-03-04T09:11:17;12.20;;;8.90;;
38611;SDS011;24368;52.156;20.788;2023-03-04T09:16:19;15.40;;;11.00;;
38611;SDS011;24368;52.156;20.788;2023-03-04T09:21:21;17.90;;;12.50;;
38611;SDS011;24368;52.156;20.788;2023-03-04T09:26:24;16.40;;;11.40;;
38611;SDS011;24368;52.156;20.788;2023-03-04T09:31:28;17.10;;;11.80;;
38611;SDS011;24368;52.156;20.788;2023-03-04T09:36:30;14.40;;;9.00;;
38611;SDS011;24368;52.156;20.788;2023-03-04T09:46:40;17.70;;;9.70;;
38611;SDS011;24368;52.156;20.788;2023-03-04T09:51:46;16.40;;;10.80;;
38611;SDS011;24368;52.156;20.788;2023-03-04T09:57:19;18.30;;;12.40;;
38611;SDS011;24368;52.156;20.788;2023-03-04T10:02:35;18.70;;;10.80;;
38611;SDS011;24368;52.156;20.788;2023-03-04T10:07:39;14.00;;;7.80;;
38611;SDS011;24368;52.156;20.788;2023-03-04T10:12:45;13.00;;;7.00;;
38611;SDS011;24368;52.156;20.788;2023-03-04T10:17:51;15.10;;;9.70;;
38611;SDS011;24368;52.156;20.788;2023-03-04T10:23:07;15.30;;;8.90;;
38611;SDS011;24368;52.156;20.788;2023-03-04T10:28:14;12.20;;;9.00;;
38611;SDS011;24368;52.156;20.788;2023-03-04T10:33:20;12.30;;;8.30;;
38611;SDS011;24368;52.156;20.788;2023-03-04T10:38:25;16.80;;;10.40;;
38611;SDS011;24368;52.156;20.788;2023-03-04T10:43:31;14.50;;;9.10;;
38611;SDS011;24368;52.156;20.788;2023-03-04T10:48:33;11.00;;;7.80;;
38611;SDS011;24368;52.156;20.788;2023-03-04T10:53:40;14.50;;;8.20;;
38611;SDS011;24368;52.156;20.788;2023-03-04T10:58:44;14.40;;;8.20;;
38611;SDS011;24368;52.156;20.788;2023-03-04T11:03:46;12.70;;;8.10;;
38611;SDS011;24368;52.156;20.788;2023-03-04T11:08:54;14.80;;;10.40;;
38611;SDS011;24368;52.156;20.788;2023-03-04T11:13:59;11.90;;;7.40;;
38611;SDS011;24368;52.156;20.788;2023-03-04T11:19:05;9.90;;;6.80;;
38611;SDS011;24368;52.156;20.788;2023-03-04T11:24:22;13.40;;;8.30;;
38611;SDS011;24368;52.156;20.788;2023-03-04T11:44:57;14.70;;;8.40;;
38611;SDS011;24368;52.156;20.788;2023-03-04T11:50:11;12.90;;;7.00;;
38611;SDS011;24368;52.156;20.788;2023-03-04T11:55:24;14.40;;;8.40;;
38611;SDS011;24368;52.156;20.788;2023-03-04T12:00:36;12.00;;;8.00;;
38611;SDS011;24368;52.156;20.788;2023-03-04T12:11:33;8.70;;;6.00;;
38611;SDS011;24368;52.156;20.788;2023-03-04T12:17:15;14.50;;;8.50;;
38611;SDS011;24368;52.156;20.788;2023-03-04T12:32:59;13.10;;;8.20;;
38611;SDS011;24368;52.156;20.788;2023-03-04T12:43:49;15.20;;;8.90;;
38611;SDS011;24368;52.156;20.788;2023-03-04T12:54:38;15.00;;;11.00;;
38611;SDS011;24368;52.156;20.788;2023-03-04T13:05:59;19.40;;;10.90;;
38611;SDS011;24368;52.156;20.788;2023-03-04T13:10:34;12.10;;;8.70;;
38611;SDS011;24368;52.156;20.788;2023-03-04T13:15:36;12.20;;;9.10;;
38611;SDS011;24368;52.156;20.788;2023-03-04T13:20:39;11.20;;;8.10;;
38611;SDS011;24368;52.156;20.788;2023-03-04T13:25:46;14.70;;;10.70;;
38611;SDS011;24368;52.156;20.788;2023-03-04T13:51:32;5.20;;;3.30;;
38611;SDS011;24368;52.156;20.788;2023-03-04T13:56:44;3.40;;;2.30;;
38611;SDS011;24368;52.156;20.788;2023-03-04T14:12:30;3.60;;;2.80;;
38611;SDS011;24368;52.156;20.788;2023-03-04T14:17:34;4.10;;;3.30;;
38611;SDS011;24368;52.156;20.788;2023-03-04T14:22:38;4.50;;;3.80;;
38611;SDS011;24368;52.156;20.788;2023-03-04T14:27:41;6.30;;;5.00;;
38611;SDS011;24368;52.156;20.788;2023-03-04T14:32:44;10.90;;;7.10;;
38611;SDS011;24368;52.156;20.788;2023-03-04T14:37:53;8.80;;;6.20;;
38611;SDS011;24368;52.156;20.788;2023-03-04T14:43:17;8.20;;;6.20;;
38611;SDS011;24368;52.156;20.788;2023-03-04T14:53:28;8.80;;;6.90;;
38611;SDS011;24368;52.156;20.788;2023-03-04T14:58:36;10.30;;;7.30;;
38611;SDS011;24368;52.156;20.788;2023-03-04T15:03:40;10.10;;;7.50;;
38611;SDS011;24368;52.156;20.788;2023-03-04T15:08:44;10.20;;;6.60;;
38611;SDS011;24368;52.156;20.788;2023-03-04T15:13:48;8.50;;;6.30;;
38611;SDS011;24368;52.156;20.788;2023-03-04T15:23:57;9.20;;;5.80;;
38611;SDS011;24368;52.156;20.788;2023-03-04T15:28:59;4.40;;;2.20;;
38611;SDS011;24368;52.156;20.788;2023-03-04T15:34:01;3.30;;;1.50;;
38611;SDS011;24368;52.156;20.788;2023-03-04T15:39:03;3.40;;;1.60;;
38611;SDS011;24368;52.156;20.788;2023-03-04T15:44:04;2.30;;;1.60;;
38611;SDS011;24368;52.156;20.788;2023-03-04T15:49:06;2.50;;;2.20;;
38611;SDS011;24368;52.156;20.788;2023-03-04T15:54:09;3.10;;;1.60;;
38611;SDS011;24368;52.156;20.788;2023-03-04T15:59:14;3.50;;;1.30;;
38611;SDS011;24368;52.156;20.788;2023-03-04T16:04:17;2.60;;;1.60;;
38611;SDS011;24368;52.156;20.788;2023-03-04T16:09:19;2.30;;;1.20;;
38611;SDS011;24368;52.156;20.788;2023-03-04T16:14:23;3.40;;;1.20;;
38611;SDS011;24368;52.156;20.788;2023-03-04T16:19:24;3.40;;;2.00;;
38611;SDS011;24368;52.156;20.788;2023-03-04T16:24:26;3.30;;;2.20;;
38611;SDS011;24368;52.156;20.788;2023-03-04T16:29:32;5.50;;;3.10;;
38611;SDS011;24368;52.156;20.788;2023-03-04T16:34:34;5.00;;;2.50;;
38611;SDS011;24368;52.156;20.788;2023-03-04T16:39:36;3.30;;;1.80;;
38611;SDS011;24368;52.156;20.788;2023-03-04T16:44:38;5.40;;;2.60;;
38611;SDS011;24368;52.156;20.788;2023-03-04T16:49:40;8.00;;;2.50;;
38611;SDS011;24368;52.156;20.788;2023-03-04T16:54:42;5.40;;;2.80;;
38611;SDS011;24368;52.156;20.788;2023-03-04T16:59:46;6.30;;;3.30;;
38611;SDS011;24368;52.156;20.788;2023-03-04T17:04:48;4.40;;;2.40;;
38611;SDS011;24368;52.156;20.788;2023-03-04T17:09:51;4.90;;;3.00;;
38611;SDS011;24368;52.156;20.788;2023-03-04T17:14:53;4.80;;;1.80;;
38611;SDS011;24368;52.156;20.788;2023-03-04T17:19:54;2.80;;;2.10;;
38611;SDS011;24368;52.156;20.788;2023-03-04T17:24:56;3.20;;;1.70;;
38611;SDS011;24368;52.156;20.788;2023-03-04T17:29:58;4.50;;;2.30;;
38611;SDS011;24368;52.156;20.788;2023-03-04T17:35:00;3.40;;;1.70;;
38611;SDS011;24368;52.156;20.788;2023-03-04T17:40:04;2.30;;;1.30;;
38611;SDS011;24368;52.156;20.788;2023-03-04T17:45:09;3.90;;;1.20;;
38611;SDS011;24368;52.156;20.788;2023-03-04T17:50:11;2.20;;;1.30;;
38611;SDS011;24368;52.156;20.788;2023-03-04T17:55:13;1.70;;;1.30;;
38611;SDS011;24368;52.156;20.788;2023-03-04T18:00:15;3.20;;;2.00;;
38611;SDS011;24368;52.156;20.788;2023-03-04T18:05:18;5.10;;;2.10;;
38611;SDS011;24368;52.156;20.788;2023-03-04T18:10:20;5.50;;;2.00;;
38611;SDS011;24368;52.156;20.788;2023-03-04T18:15:22;5.80;;;3.20;;
38611;SDS011;24368;52.156;20.788;2023-03-04T18:20:24;1.80;;;1.10;;
38611;SDS011;24368;52.156;20.788;2023-03-04T18:25:26;2.80;;;1.30;;
38611;SDS011;24368;52.156;20.788;2023-03-04T18:30:27;4.50;;;1.80;;
38611;SDS011;24368;52.156;20.788;2023-03-04T18:35:30;2.90;;;2.00;;
38611;SDS011;24368;52.156;20.788;2023-03-04T18:40:32;3.10;;;1.60;;
38611;SDS011;24368;52.156;20.788;2023-03-04T18:45:36;3.30;;;1.40;;
38611;SDS011;24368;52.156;20.788;2023-03-04T18:50:37;2.50;;;1.80;;
38611;SDS011;24368;52.156;20.788;2023-03-04T18:55:39;4.80;;;2.00;;
38611;SDS011;24368;52.156;20.788;2023-03-04T19:00:41;2.10;;;1.50;;
38611;SDS011;24368;52.156;20.788;2023-03-04T19:05:43;3.00;;;2.00;;
38611;SDS011;24368;52.156;20.788;2023-03-04T19:10:45;3.90;;;2.20;;
38611;SDS011;24368;52.156;20.788;2023-03-04T19:15:50;5.10;;;2.20;;
38611;SDS011;24368;52.156;20.788;2023-03-04T19:20:52;4.00;;;2.50;;
38611;SDS011;24368;52.156;20.788;2023-03-04T19:25:54;5.40;;;3.10;;
38611;SDS011;24368;52.156;20.788;2023-03-04T19:30:56;6.30;;;3.10;;
38611;SDS011;24368;52.156;20.788;2023-03-04T19:36:00;4.20;;;2.60;;
38611;SDS011;24368;52.156;20.788;2023-03-04T19:41:21;5.00;;;2.80;;
38611;SDS011;24368;52.156;20.788;2023-03-04T19:46:24;3.30;;;2.40;;
38611;SDS011;24368;52.156;20.788;2023-03-04T19:51:27;5.90;;;3.10;;
38611;SDS011;24368;52.156;20.788;2023-03-04T19:56:29;4.00;;;2.30;;
38611;SDS011;24368;52.156;20.788;2023-03-04T20:01:31;3.50;;;2.00;;
38611;SDS011;24368;52.156;20.788;2023-03-04T20:06:35;4.10;;;1.80;;
38611;SDS011;24368;52.156;20.788;2023-03-04T20:11:42;2.50;;;1.30;;
38611;SDS011;24368;52.156;20.788;2023-03-04T20:16:45;5.10;;;1.80;;
38611;SDS011;24368;52.156;20.788;2023-03-04T20:21:47;2.60;;;1.30;;
38611;SDS011;24368;52.156;20.788;2023-03-04T20:26:49;4.10;;;1.40;;
38611;SDS011;24368;52.156;20.788;2023-03-04T20:31:51;2.00;;;1.40;;
38611;SDS011;24368;52.156;20.788;2023-03-04T20:36:52;1.80;;;1.10;;
38611;SDS011;24368;52.156;20.788;2023-03-04T20:41:56;3.60;;;1.30;;
38611;SDS011;24368;52.156;20.788;2023-03-04T20:46:58;2.40;;;1.50;;
38611;SDS011;24368;52.156;20.788;2023-03-04T20:52:01;3.20;;;1.80;;
38611;SDS011;24368;52.156;20.788;2023-03-04T20:57:06;2.90;;;1.40;;
38611;SDS011;24368;52.156;20.788;2023-03-04T21:02:13;2.10;;;1.00;;
38611;SDS011;24368;52.156;20.788;2023-03-04T21:07:16;5.80;;;1.80;;
38611;SDS011;24368;52.156;20.788;2023-03-04T21:12:18;2.30;;;1.50;;
38611;SDS011;24368;52.156;20.788;2023-03-04T21:17:20;4.70;;;1.40;;
38611;SDS011;24368;52.156;20.788;2023-03-04T21:22:21;2.50;;;1.40;;
38611;SDS011;24368;52.156;20.788;2023-03-04T21:27:23;3.30;;;1.50;;
38611;SDS011;24368;52.156;20.788;2023-03-04T21:32:25;6.20;;;2.00;;
38611;SDS011;24368;52.156;20.788;2023-03-04T21:37:27;3.10;;;1.70;;
38611;SDS011;24368;52.156;20.788;2023-03-04T21:42:29;4.90;;;2.00;;
38611;SDS011;24368;52.156;20.788;2023-03-04T21:47:34;3.60;;;1.80;;
38611;SDS011;24368;52.156;20.788;2023-03-04T21:52:35;3.40;;;2.10;;
38611;SDS011;24368;52.156;20.788;2023-03-04T21:57:37;7.10;;;2.50;;
38611;SDS011;24368;52.156;20.788;2023-03-04T22:02:39;5.30;;;2.00;;
38611;SDS011;24368;52.156;20.788;2023-03-04T22:07:41;5.00;;;2.40;;
38611;SDS011;24368;52.156;20.788;2023-03-04T22:12:43;4.70;;;2.70;;
38611;SDS011;24368;52.156;20.788;2023-03-04T22:17:45;8.10;;;3.90;;
38611;SDS011;24368;52.156;20.788;2023-03-04T22:22:47;8.20;;;4.30;;
38611;SDS011;24368;52.156;20.788;2023-03-04T22:27:48;9.10;;;4.70;;
38611;SDS011;24368;52.156;20.788;2023-03-04T22:32:50;10.30;;;4.70;;
38611;SDS011;24368;52.156;20.788;2023-03-04T22:37:52;9.80;;;5.80;;
38611;SDS011;24368;52.156;20.788;2023-03-04T22:42:54;11.70;;;5.20;;
38611;SDS011;24368;52.156;20.788;2023-03-04T22:47:56;13.30;;;5.30;;
38611;SDS011;24368;52.156;20.788;2023-03-04T22:52:57;11.80;;;5.80;;
38611;SDS011;24368;52.156;20.788;2023-03-04T22:58:00;13.30;;;6.10;;
38611;SDS011;24368;52.156;20.788;2023-03-04T23:03:03;9.20;;;4.70;;
38611;SDS011;24368;52.156;20.788;2023-03-04T23:08:06;9.40;;;5.40;;
38611;SDS011;24368;52.156;20.788;2023-03-04T23:13:08;10.60;;;5.60;;
38611;SDS011;24368;52.156;20.788;2023-03-04T23:18:10;9.20;;;4.80;;
38611;SDS011;24368;52.156;20.788;2023-03-04T23:23:12;8.50;;;4.90;;
38611;SDS011;24368;52.156;20.788;2023-03-04T23:28:13;11.20;;;5.60;;
38611;SDS011;24368;52.156;20.788;2023-03-04T23:33:15;9.60;;;5.20;;
38611;SDS011;24368;52.156;20.788;2023-03-04T23:38:17;11.70;;;5.60;;
38611;SDS011;24368;52.156;20.788;2023-03-04T23:43:19;9.80;;;5.10;;
38611;SDS011;24368;52.156;20.788;2023-03-04T23:48:20;10.10;;;6.30;;
38611;SDS011;24368;52.156;20.788;2023-03-04T23:53:22;9.50;;;5.00;;
38611;SDS011;24368;52.156;20.788;2023-03-04T23:58:24;9.40;;;5.50;;
